Latest Weather Observations for Campania

IDT60801

Issued at 1:02 pm EDT Thursday 18 December 2014 (issued every 30 minutes, with the page automatically refreshed every 10 minutes)

About weather observations | Map of weather stations | Latest weather observations for TAS | Other Formats
Station Details ID: 094212 Name: CAMPANIA (KINCORA) Lat: -42.69 Lon: 147.43 Height: 45.0 m
Data from the previous 72 hours. | See also: Recent months at Campania
Date/Time
EDT
Temp
°C
App
Temp
°C
Dew
Point
Rel
Hum
%
Delta-T
°C
Wind Press
QNH
hPa
Press
MSL
hPa
Rain
since 9 am
mm
Dir
 
Spd
km/h
Gust
km/h
Spd
kts
Gust
kts
18/01:00pm 18.7 11.7 9.8 56 4.7 N 37 50 20 27 - - 0.0
18/12:44pm 20.1 12.8 8.8 48 5.9 N 37 56 20 30 - - 0.0
18/12:30pm 19.8 12.1 8.5 48 5.9 N 39 54 21 29 - - 0.0
18/12:00pm 21.0 13.3 7.3 41 7.0 N 37 56 20 30 - - 0.0
18/11:31am 18.7 12.3 8.7 52 5.2 N 32 50 17 27 - - 0.0
18/11:30am 18.6 12.1 8.8 53 5.1 N 33 50 18 27 - - 0.0
18/11:11am 17.6 11.9 8.5 55 4.7 N 28 46 15 25 - - 0.0
18/11:00am 17.5 12.2 8.4 55 4.7 N 26 39 14 21 - - 0.0
18/10:30am 16.3 10.5 8.0 58 4.2 N 28 35 15 19 - - 0.0
18/10:00am 15.8 10.8 8.1 60 3.9 N 24 33 13 18 - - 0.0
18/09:30am 16.4 11.2 7.1 54 4.6 N 24 33 13 18 - - 0.0
18/09:00am 16.5 11.2 6.6 52 4.9 N 24 32 13 17 - - 0.0
18/08:30am 15.2 11.8 6.0 54 4.4 N 13 26 7 14 - - 0.0
18/08:00am 12.4 10.2 6.0 65 3.0 NNE 7 7 4 4 - - 0.0
18/07:30am 11.0 9.5 6.6 74 2.1 NNW 4 9 2 5 - - 0.0
18/07:00am 10.1 7.2 6.3 77 1.8 N 11 15 6 8 - - 0.0
18/06:30am 9.4 6.8 6.3 81 1.4 N 9 15 5 8 - - 0.0
18/06:00am 7.9 5.3 6.2 89 0.8 NNW 9 11 5 6 - - 0.0
18/05:30am 6.1 4.6 5.2 94 0.4 N 2 6 1 3 - - 0.0
18/05:00am 6.2 3.7 5.0 92 0.5 NNW 7 9 4 5 - - 0.0
18/04:30am 7.3 5.4 5.1 86 1.0 NNE 4 7 2 4 - - 0.0
18/04:00am 7.0 4.3 5.8 92 0.5 NNE 9 11 5 6 - - 0.0
18/03:30am 7.0 4.6 5.2 88 0.8 N 7 9 4 5 - - 0.0
18/03:00am 8.3 5.6 5.8 84 1.1 N 9 11 5 6 - - 0.0
18/02:30am 9.0 6.0 5.9 81 1.4 N 11 13 6 7 - - 0.0
18/02:00am 9.2 6.9 5.8 79 1.6 N 7 11 4 6 - - 0.0
18/01:30am 10.3 7.4 6.6 78 1.7 NNE 11 13 6 7 - - 0.0
18/01:00am 12.1 10.1 7.0 71 2.5 NNE 7 11 4 6 - - 0.0
18/12:30am 13.4 11.0 5.3 58 3.8 NW 7 9 4 5 - - 0.0
18/12:00am 13.1 10.9 6.0 62 3.4 WNW 7 9 4 5 - - 0.0
 
Date/Time
EDT
Temp
°C
App
Temp
°C
Dew
Point
Rel
Hum
%
Delta-T
°C
Wind Press
QNH
hPa
Press
MSL
hPa
Rain
since 9 am
mm
Dir
 
Spd
km/h
Gust
km/h
Spd
kts
Gust
kts
17/11:30pm 13.0 10.7 5.9 62 3.4 N 7 13 4 7 - - 0.0
17/11:00pm 13.7 12.5 4.8 55 4.1 CALM 0 7 0 4 - - 0.0
17/10:30pm 14.4 11.9 5.0 53 4.4 W 7 11 4 6 - - 0.0
17/10:00pm 14.9 12.3 6.2 56 4.2 NW 9 19 5 10 - - 0.0
17/09:30pm 15.0 12.3 7.5 61 3.7 NE 11 15 6 8 - - 0.0
17/09:00pm 15.6 13.1 6.6 55 4.4 NE 9 13 5 7 - - 0.0
17/08:30pm 15.9 13.9 6.1 52 4.8 SE 6 7 3 4 - - 0.0
17/08:00pm 16.3 13.9 5.3 48 5.3 WSW 7 13 4 7 - - 0.0
17/07:30pm 16.4 12.5 5.4 48 5.3 SW 15 20 8 11 - - 0.0
17/07:00pm 16.6 11.0 5.6 48 5.3 WSW 24 33 13 18 - - 0.0
17/06:30pm 18.7 13.2 4.1 38 6.9 W 22 32 12 17 - - 0.0
17/06:00pm 18.2 13.1 4.0 39 6.7 WSW 20 32 11 17 - - 0.0
17/05:30pm 18.9 14.1 4.7 39 6.8 WSW 19 26 10 14 - - 0.0
17/05:00pm 18.8 13.9 4.2 38 7.0 WSW 19 28 10 15 - - 0.0
17/04:30pm 17.7 11.8 5.6 45 5.9 WSW 26 33 14 18 - - 0.0
17/04:00pm 17.6 12.1 4.2 41 6.3 W 22 32 12 17 - - 0.0
17/03:30pm 18.4 13.9 4.2 39 6.7 W 17 26 9 14 - - 0.0
17/03:00pm 18.0 14.8 4.9 42 6.3 W 11 22 6 12 - - 0.0
17/02:30pm 18.0 12.5 4.2 40 6.5 WSW 22 30 12 16 - - 0.0
17/02:00pm 16.6 10.6 5.3 47 5.4 W 26 41 14 22 - - 0.0
17/01:30pm 18.4 12.1 3.8 38 6.9 NW 26 39 14 21 - - 0.0
17/01:00pm 16.6 12.5 4.3 44 5.8 WSW 15 28 8 15 - - 0.0
17/12:30pm 17.2 11.6 3.5 40 6.4 WNW 22 43 12 23 - - 0.0
17/12:00pm 17.5 13.7 4.1 41 6.3 WNW 13 37 7 20 - - 0.0
17/11:30am 15.8 9.6 4.2 46 5.4 WNW 26 37 14 20 - - 0.0
17/11:00am 15.2 9.5 3.0 44 5.5 WNW 22 41 12 22 - - 0.0
17/10:30am 15.1 9.8 4.8 50 4.8 WNW 22 35 12 19 - - 0.0
17/10:00am 14.0 8.0 5.1 55 4.2 WNW 26 44 14 24 - - 0.0
17/09:30am 14.3 9.6 5.1 54 4.3 WNW 19 30 10 16 - - 0.0
17/09:00am 12.3 6.9 4.5 59 3.6 W 22 35 12 19 - - 4.8
17/08:30am 14.0 8.3 4.9 54 4.2 WNW 24 35 13 19 - - 4.8
17/08:00am 13.2 9.1 4.6 56 4.0 W 15 26 8 14 - - 4.8
17/07:30am 12.1 6.7 4.3 59 3.5 W 22 39 12 21 - - 4.8
17/07:00am 11.9 6.8 3.2 55 3.8 WNW 19 32 10 17 - - 4.8
17/06:30am 11.3 6.2 3.3 58 3.5 WNW 19 30 10 16 - - 4.8
17/06:00am 11.2 6.9 3.0 57 3.6 W 15 24 8 13 - - 4.8
17/05:30am 10.7 6.0 3.3 60 3.2 WSW 17 24 9 13 - - 4.8
17/05:00am 11.7 6.0 3.0 55 3.8 WNW 22 35 12 19 - - 4.8
17/04:30am 11.6 7.0 3.6 58 3.6 WNW 17 28 9 15 - - 4.8
17/04:01am 11.9 4.4 3.7 57 3.7 W 32 50 17 27 - - 4.8
17/04:00am 11.9 4.8 3.7 57 3.7 W 30 46 16 25 - - 4.8
17/03:56am 11.8 5.1 3.6 57 3.6 W 28 46 15 25 - - 4.8
17/03:30am 11.7 8.7 4.2 60 3.4 NW 9 15 5 8 - - 4.8
17/03:00am 11.6 6.6 4.6 62 3.2 W 20 37 11 20 - - 4.8
17/02:30am 12.1 7.3 4.6 60 3.4 WNW 19 33 10 18 - - 4.8
17/02:00am 11.9 6.1 4.2 59 3.5 W 24 39 13 21 - - 4.8
17/01:30am 12.2 8.3 6.9 70 2.5 W 17 26 9 14 - - 4.8
17/01:00am 12.8 8.5 6.8 67 2.9 WNW 19 28 10 15 - - 4.8
17/12:30am 12.6 8.7 6.9 68 2.7 WNW 17 26 9 14 - - 4.8
17/12:00am 12.3 8.1 7.4 72 2.4 NW 19 28 10 15 - - 4.8
 
Date/Time
EDT
Temp
°C
App
Temp
°C
Dew
Point
Rel
Hum
%
Delta-T
°C
Wind Press
QNH
hPa
Press
MSL
hPa
Rain
since 9 am
mm
Dir
 
Spd
km/h
Gust
km/h
Spd
kts
Gust
kts
16/11:30pm 12.2 8.1 7.9 75 2.1 WNW 19 26 10 14 - - 4.8
16/11:00pm 13.5 10.4 7.1 65 3.1 NW 13 30 7 16 - - 4.8
16/10:30pm 13.6 7.1 6.5 62 3.4 WNW 30 50 16 27 - - 4.8
16/10:23pm 13.5 7.4 6.6 63 3.3 WNW 28 50 15 27 - - 4.8
16/10:00pm 13.2 9.4 7.4 68 2.8 WNW 17 32 9 17 - - 4.8
16/09:31pm 13.6 7.9 8.4 71 2.6 WNW 28 46 15 25 - - 4.8
16/09:30pm 13.6 7.6 8.7 72 2.5 WNW 30 46 16 25 - - 4.8
16/09:00pm 15.7 9.4 7.2 57 4.2 WNW 30 48 16 26 - - 4.4
16/08:54pm 15.9 10.0 7.4 57 4.2 WNW 28 46 15 25 - - 4.4
16/08:30pm 16.1 11.5 8.3 60 4.0 NW 22 50 12 27 - - 4.4
16/08:00pm 15.1 12.8 10.3 73 2.5 N 13 20 7 11 - - 4.4
16/07:30pm 14.5 12.3 10.7 78 2.0 NE 13 20 7 11 - - 4.4
16/07:00pm 14.5 10.1 10.3 76 2.2 NNW 24 35 13 19 - - 4.4
16/06:47pm 15.0 6.0 10.4 74 2.4 NW 48 72 26 39 - - 4.2
16/06:44pm 15.8 10.3 12.5 81 1.8 W 33 69 18 37 - - 3.8
16/06:30pm 16.2 15.2 14.7 91 0.9 SSE 13 17 7 9 - - 1.0
16/06:00pm 17.1 15.1 15.4 90 1.0 S 20 26 11 14 - - 1.0
16/05:30pm 16.1 13.0 14.6 91 0.9 S 24 35 13 19 - - 1.0
16/05:00pm 17.7 13.3 13.0 74 2.6 SE 28 43 15 23 - - 0.0
16/04:30pm 20.5 16.3 14.6 69 3.5 SE 30 41 16 22 - - 0.0
16/04:00pm 24.8 21.7 14.6 53 6.1 S 24 46 13 25 - - 0.0
16/03:30pm 29.8 24.0 12.7 35 10.1 N 35 57 19 31 - - 0.0
16/03:00pm 29.1 22.6 11.6 33 10.1 N 37 57 20 31 - - 0.0
16/02:31pm 29.8 25.2 14.7 39 9.2 N 32 50 17 27 - - 0.0
16/02:30pm 29.8 24.9 14.4 39 9.3 N 33 50 18 27 - - 0.0
16/02:00pm 27.9 21.1 14.2 43 8.2 N 43 61 23 33 - - 0.0
16/01:30pm 28.7 24.1 14.5 42 8.6 N 32 50 17 27 - - 0.0
16/01:00pm 28.0 22.7 13.1 39 8.8 N 33 52 18 28 - - 0.0
16/12:30pm 27.6 22.6 13.5 41 8.4 N 32 56 17 30 - - 0.0
16/12:11pm 27.5 22.3 12.7 40 8.7 N 32 50 17 27 - - 0.0
16/12:00pm 27.6 24.3 12.8 40 8.7 NNW 22 33 12 18 - - 0.0
16/11:32am 26.8 22.5 13.2 43 8.0 N 28 46 15 25 - - 0.0
16/11:30am 26.6 21.9 13.3 43 7.8 N 30 46 16 25 - - 0.0
16/11:00am 26.2 23.4 13.3 45 7.6 N 20 30 11 16 - - 0.0
16/10:30am 25.7 23.4 14.2 49 6.8 N 19 28 10 15 - - 0.0
16/10:00am 22.1 21.3 14.0 60 4.7 S 11 17 6 9 - - 0.0
16/09:30am 20.2 19.7 12.7 62 4.2 SE 7 13 4 7 - - 0.0
16/09:00am 19.6 19.0 13.5 68 3.5 SSE 9 11 5 6 - - 0.0
16/08:30am 17.9 16.8 13.0 73 2.8 SSE 11 13 6 7 - - 0.0
16/08:00am 17.5 17.3 13.0 75 2.5 SE 6 7 3 4 - - 0.0
16/07:30am 14.9 14.3 12.4 85 1.4 SW 7 9 4 5 - - 0.0
16/07:00am 14.2 14.3 12.6 90 0.9 NNW 4 7 2 4 - - 0.0
16/06:30am 12.2 10.8 12.2 100 0.0 N 11 15 6 8 - - 0.0
16/06:00am 10.5 - 10.6 - - N 13 17 7 9 - - 0.0
16/05:30am 10.0 - 10.1 - - NNW 9 11 5 6 - - 0.0
16/05:00am 10.8 9.7 10.8 100 0.0 NW 7 9 4 5 - - 0.0
16/04:30am 10.9 9.1 10.9 100 0.0 N 11 13 6 7 - - 0.0
16/04:00am 10.5 9.0 10.5 100 0.0 N 9 11 5 6 - - 0.0
16/03:30am 11.1 10.1 10.9 99 0.1 N 7 9 4 5 - - 0.0
16/03:00am 11.8 10.6 11.6 99 0.1 N 9 11 5 6 - - 0.0
16/02:30am 11.6 10.7 11.4 99 0.1 N 7 9 4 5 - - 0.0
16/02:00am 12.5 11.3 11.7 95 0.4 N 9 13 5 7 - - 0.0
16/01:30am 13.9 14.6 12.3 90 0.9 CALM 0 6 0 3 - - 0.0
16/01:00am 14.6 14.1 12.6 88 1.1 SW 7 7 4 4 - - 0.0
16/12:30am 15.0 14.7 12.7 86 1.3 SW 6 7 3 4 - - 0.0
16/12:00am 14.9 14.3 12.4 85 1.4 S 7 9 4 5 - - 0.0
 
Date/Time
EDT
Temp
°C
App
Temp
°C
Dew
Point
Rel
Hum
%
Delta-T
°C
Wind Press
QNH
hPa
Press
MSL
hPa
Rain
since 9 am
mm
Dir
 
Spd
km/h
Gust
km/h
Spd
kts
Gust
kts
15/11:30pm 15.0 14.5 12.5 85 1.4 SSE 7 9 4 5 - - 0.0
15/11:00pm 15.4 14.9 12.7 84 1.5 ESE 7 11 4 6 - - 0.0
15/10:30pm 15.6 15.1 12.7 83 1.6 SSE 7 11 4 6 - - 0.0
15/10:00pm 15.8 13.4 12.7 82 1.7 S 17 20 9 11 - - 0.0
15/09:30pm 15.9 13.2 12.8 82 1.7 S 19 24 10 13 - - 0.0
15/09:00pm 15.8 12.9 12.9 83 1.6 S 20 28 11 15 - - 0.0
15/08:30pm 16.0 13.0 13.7 86 1.3 S 22 30 12 16 - - 0.0
15/08:00pm 16.4 13.4 13.7 84 1.5 S 22 32 12 17 - - 0.0
15/07:30pm 17.0 12.9 12.7 76 2.4 S 26 35 14 19 - - 0.0
15/07:00pm 18.3 13.8 12.7 70 3.1 S 28 37 15 20 - - 0.0
15/06:30pm 19.2 14.1 13.2 68 3.4 S 32 43 17 23 - - 0.0
15/06:00pm 20.0 15.4 13.5 66 3.7 S 30 39 16 21 - - 0.0
15/05:30pm 20.6 15.5 13.8 65 3.9 S 33 43 18 23 - - 0.0
15/05:00pm 20.7 15.3 13.9 65 3.9 S 35 46 19 25 - - 0.0
15/04:30pm 21.5 16.6 14.4 64 4.2 S 33 44 18 24 - - 0.0
15/04:00pm 21.3 16.3 14.0 63 4.2 S 33 44 18 24 - - 0.0
15/03:30pm 22.1 17.0 14.7 63 4.4 S 35 46 19 25 - - 0.0
15/03:00pm 22.2 17.3 14.3 61 4.6 S 33 44 18 24 - - 0.0
15/02:30pm 22.7 18.0 14.8 61 4.7 S 33 43 18 23 - - 0.0
15/02:00pm 23.2 18.6 14.7 58 5.0 S 32 41 17 22 - - 0.0
15/01:30pm 23.1 19.1 14.1 57 5.3 S 28 41 15 22 - - 0.0

Other Formats:

Comma delimited format used in spreadsheet applications
http://www.bom.gov.au/fwo/IDT60801/IDT60801.95972.axf

JavaScript Object Notation format (JSON) in row-major order
http://www.bom.gov.au/fwo/IDT60801/IDT60801.95972.json